الصفحة الرئيسية
METAR-TAF:

METAR-TAF

مطار :

مطار ريكيافيك

ريكيافيك, أيسلندا

دائرة عرض: 64-08N, خط طول: 021-54W, ارتفاع: 54 متر

مراقبة الطقس الحالي

تاريخ ووقت الإصدار 36 دقيقة قبل الساعة 00:00UTC
ريح 10 عقدة من الغرب/الشمال الغربي
درجة الحرارة 10°درجة مئوية
الرطوبة 87%
ضغط 992 hPa
الرؤية 10 كم أو أكثر
غيوم قليلة على ارتفاع 1500 قدم
غيوم متفرقة على ارتفاع 2800 قدم

METAR: BIRK 160000Z 29010KT 9999 FEW015 SCT028 10/08 Q0992

زمن: 00:36 (00:36 UTC)

توقعات

تاريخ ووقت الإصدار 2ساعات و 3 دقيقة قبل الساعة 22:33UTC
التوقعات صالحة من16 الساعة 00 UTC إلى 16 الساعة 24 UTC
ريح 10 عقدة من الشمال/الشمال الغربي
الرؤية 10 كم أو أكثر
غيوم قليلة على ارتفاع 2500 قدم
غيوم متفرقة على ارتفاع 4000 قدم
مؤقت
من 16 الساعة 02 UTC إلى 16 الساعة 07 UTC
غيوم مفككة على ارتفاع 1500 قدم
أصبح
من 16 الساعة 21 UTC إلى 16 الساعة 24 UTC
ريح 10 عقدة من الشرق/الشمال الشرقي

TAF: BIRK 152233Z 1600/1624 34010KT 9999 FEW025 SCT040 TX15/1615Z TN09/1606Z TEMPO 1602/1607 BKN015 BECMG 1621/1624 07010KT

أرصاد الطقس والتوقعات من أكثر من 4000 مطار (تقارير الطقس للمطار METAR والتنبؤ بالطقس بالمطارTAF).

المحطات المتاحة هي النقط الصفراء والحمراء على الخريطة.

حرك المؤشر فوق النقطة لمعرفة اسم المحطة.

ثم انقر لمعرفة أرصاد وتوقعات الطقس.

لتغيير الخارطة: اضغط على الأزرار الخضراء مع رمز الصليب الأسود للتكبير. على الزر الأخضر مع شرطة للتصغير، أو على الأسهم الخضراء للخرائط المجاورة.


METAR-TAF: